sensor_id;sensor_type;location;lat;lon;timestamp;temperature;humidity
16283;DHT22;8249;48.708;9.030;2022-11-23T00:01:29;2.20;99.90
16283;DHT22;8249;48.708;9.030;2022-11-23T00:03:59;2.20;99.90
16283;DHT22;8249;48.708;9.030;2022-11-23T00:06:26;2.20;99.90
16283;DHT22;8249;48.708;9.030;2022-11-23T00:08:54;2.20;99.90
16283;DHT22;8249;48.708;9.030;2022-11-23T00:11:22;2.10;99.90
16283;DHT22;8249;48.708;9.030;2022-11-23T00:13:50;2.10;99.90
16283;DHT22;8249;48.708;9.030;2022-11-23T00:16:20;2.10;99.90
16283;DHT22;8249;48.708;9.030;2022-11-23T00:18:47;2.10;99.90
16283;DHT22;8249;48.708;9.030;2022-11-23T00:21:17;2.00;99.90
16283;DHT22;8249;48.708;9.030;2022-11-23T00:23:45;2.00;99.90
16283;DHT22;8249;48.708;9.030;2022-11-23T00:26:13;2.00;99.90
16283;DHT22;8249;48.708;9.030;2022-11-23T00:28:40;2.00;99.90
16283;DHT22;8249;48.708;9.030;2022-11-23T00:31:09;2.00;99.90
16283;DHT22;8249;48.708;9.030;2022-11-23T00:33:38;2.00;99.90
16283;DHT22;8249;48.708;9.030;2022-11-23T00:36:07;2.00;99.90
16283;DHT22;8249;48.708;9.030;2022-11-23T00:38:36;2.00;99.90
16283;DHT22;8249;48.708;9.030;2022-11-23T00:41:05;1.90;99.90
16283;DHT22;8249;48.708;9.030;2022-11-23T00:43:32;2.00;99.90
16283;DHT22;8249;48.708;9.030;2022-11-23T00:46:04;1.90;99.90
16283;DHT22;8249;48.708;9.030;2022-11-23T00:48:32;1.90;99.90
16283;DHT22;8249;48.708;9.030;2022-11-23T00:51:01;1.90;99.90
16283;DHT22;8249;48.708;9.030;2022-11-23T00:53:28;1.90;99.90
16283;DHT22;8249;48.708;9.030;2022-11-23T00:55:55;1.90;99.90
16283;DHT22;8249;48.708;9.030;2022-11-23T00:58:23;1.90;99.90
16283;DHT22;8249;48.708;9.030;2022-11-23T01:00:50;1.90;99.90
16283;DHT22;8249;48.708;9.030;2022-11-23T01:03:25;1.90;99.90
16283;DHT22;8249;48.708;9.030;2022-11-23T01:05:52;1.90;99.90
16283;DHT22;8249;48.708;9.030;2022-11-23T01:08:21;1.90;99.90
16283;DHT22;8249;48.708;9.030;2022-11-23T01:10:48;1.90;99.90
16283;DHT22;8249;48.708;9.030;2022-11-23T01:13:15;1.90;99.90
16283;DHT22;8249;48.708;9.030;2022-11-23T01:15:48;2.00;99.90
16283;DHT22;8249;48.708;9.030;2022-11-23T01:18:15;2.00;99.90
16283;DHT22;8249;48.708;9.030;2022-11-23T01:20:42;2.10;99.90
16283;DHT22;8249;48.708;9.030;2022-11-23T01:23:09;2.10;99.90
16283;DHT22;8249;48.708;9.030;2022-11-23T01:25:37;2.10;99.90
16283;DHT22;8249;48.708;9.030;2022-11-23T01:28:04;2.20;99.90
16283;DHT22;8249;48.708;9.030;2022-11-23T01:30:31;2.20;99.90
16283;DHT22;8249;48.708;9.030;2022-11-23T01:33:01;2.10;99.90
16283;DHT22;8249;48.708;9.030;2022-11-23T01:35:28;2.10;99.90
16283;DHT22;8249;48.708;9.030;2022-11-23T01:37:56;2.10;99.90
16283;DHT22;8249;48.708;9.030;2022-11-23T01:40:23;2.00;99.90
16283;DHT22;8249;48.708;9.030;2022-11-23T01:42:54;2.00;99.90
16283;DHT22;8249;48.708;9.030;2022-11-23T01:45:37;1.90;99.90
16283;DHT22;8249;48.708;9.030;2022-11-23T01:48:09;1.90;99.90
16283;DHT22;8249;48.708;9.030;2022-11-23T01:50:37;1.80;99.90
16283;DHT22;8249;48.708;9.030;2022-11-23T01:53:05;1.80;99.90
16283;DHT22;8249;48.708;9.030;2022-11-23T01:55:34;1.70;99.90
16283;DHT22;8249;48.708;9.030;2022-11-23T01:58:05;1.70;99.90
16283;DHT22;8249;48.708;9.030;2022-11-23T02:00:35;1.70;99.90
16283;DHT22;8249;48.708;9.030;2022-11-23T02:03:04;1.60;99.90
16283;DHT22;8249;48.708;9.030;2022-11-23T02:05:35;1.60;99.90
16283;DHT22;8249;48.708;9.030;2022-11-23T02:08:05;1.60;99.90
16283;DHT22;8249;48.708;9.030;2022-11-23T02:10:33;1.50;99.90
16283;DHT22;8249;48.708;9.030;2022-11-23T02:13:05;1.50;99.90
16283;DHT22;8249;48.708;9.030;2022-11-23T02:15:34;1.50;99.90
16283;DHT22;8249;48.708;9.030;2022-11-23T02:18:05;1.50;99.90
16283;DHT22;8249;48.708;9.030;2022-11-23T02:20:34;1.50;99.90
16283;DHT22;8249;48.708;9.030;2022-11-23T02:23:09;1.50;99.90
16283;DHT22;8249;48.708;9.030;2022-11-23T02:25:51;1.50;99.90
16283;DHT22;8249;48.708;9.030;2022-11-23T02:28:23;1.50;99.90
16283;DHT22;8249;48.708;9.030;2022-11-23T02:30:53;1.50;99.90
16283;DHT22;8249;48.708;9.030;2022-11-23T02:33:22;1.50;99.90
16283;DHT22;8249;48.708;9.030;2022-11-23T02:35:51;1.50;99.90
16283;DHT22;8249;48.708;9.030;2022-11-23T02:38:19;1.50;99.90
16283;DHT22;8249;48.708;9.030;2022-11-23T02:40:47;1.40;99.90
16283;DHT22;8249;48.708;9.030;2022-11-23T02:43:15;1.40;99.90
16283;DHT22;8249;48.708;9.030;2022-11-23T02:45:48;1.40;99.90
16283;DHT22;8249;48.708;9.030;2022-11-23T02:48:16;1.40;99.90
16283;DHT22;8249;48.708;9.030;2022-11-23T02:50:43;1.40;99.90
16283;DHT22;8249;48.708;9.030;2022-11-23T02:53:10;1.40;99.90
16283;DHT22;8249;48.708;9.030;2022-11-23T02:55:38;1.30;99.90
16283;DHT22;8249;48.708;9.030;2022-11-23T02:58:05;1.40;99.90
16283;DHT22;8249;48.708;9.030;2022-11-23T03:00:34;1.40;99.90
16283;DHT22;8249;48.708;9.030;2022-11-23T03:03:01;1.30;99.90
16283;DHT22;8249;48.708;9.030;2022-11-23T03:05:28;1.30;99.90
16283;DHT22;8249;48.708;9.030;2022-11-23T03:07:55;1.30;99.90
16283;DHT22;8249;48.708;9.030;2022-11-23T03:10:23;1.30;99.90
16283;DHT22;8249;48.708;9.030;2022-11-23T03:12:55;1.30;99.90
16283;DHT22;8249;48.708;9.030;2022-11-23T03:15:24;1.30;99.90
16283;DHT22;8249;48.708;9.030;2022-11-23T03:17:53;1.30;99.90
16283;DHT22;8249;48.708;9.030;2022-11-23T03:20:20;1.30;99.90
16283;DHT22;8249;48.708;9.030;2022-11-23T03:22:49;1.30;99.90
16283;DHT22;8249;48.708;9.030;2022-11-23T03:25:17;1.30;99.90
16283;DHT22;8249;48.708;9.030;2022-11-23T03:27:47;1.20;99.90
16283;DHT22;8249;48.708;9.030;2022-11-23T03:30:15;1.20;99.90
16283;DHT22;8249;48.708;9.030;2022-11-23T03:32:42;1.20;99.90
16283;DHT22;8249;48.708;9.030;2022-11-23T03:35:11;1.20;99.90
16283;DHT22;8249;48.708;9.030;2022-11-23T03:37:57;1.20;99.90
16283;DHT22;8249;48.708;9.030;2022-11-23T03:40:24;1.20;99.90
16283;DHT22;8249;48.708;9.030;2022-11-23T03:43:17;1.20;99.90
16283;DHT22;8249;48.708;9.030;2022-11-23T03:45:46;1.30;99.90
16283;DHT22;8249;48.708;9.030;2022-11-23T03:48:13;1.20;99.90
16283;DHT22;8249;48.708;9.030;2022-11-23T03:50:43;1.30;99.90
16283;DHT22;8249;48.708;9.030;2022-11-23T03:53:10;1.30;99.90
16283;DHT22;8249;48.708;9.030;2022-11-23T03:55:37;1.30;99.90
16283;DHT22;8249;48.708;9.030;2022-11-23T03:58:04;1.30;99.90
16283;DHT22;8249;48.708;9.030;2022-11-23T04:00:34;1.40;99.90
16283;DHT22;8249;48.708;9.030;2022-11-23T04:03:02;1.40;99.90
16283;DHT22;8249;48.708;9.030;2022-11-23T04:05:49;1.50;99.90
16283;DHT22;8249;48.708;9.030;2022-11-23T04:08:45;1.50;99.90
16283;DHT22;8249;48.708;9.030;2022-11-23T04:11:19;1.60;99.90
16283;DHT22;8249;48.708;9.030;2022-11-23T04:13:48;1.60;99.90
16283;DHT22;8249;48.708;9.030;2022-11-23T04:16:16;1.60;99.90
16283;DHT22;8249;48.708;9.030;2022-11-23T04:18:44;1.60;99.90
16283;DHT22;8249;48.708;9.030;2022-11-23T04:21:12;1.70;99.90
16283;DHT22;8249;48.708;9.030;2022-11-23T04:23:39;1.70;99.90
16283;DHT22;8249;48.708;9.030;2022-11-23T04:26:08;1.80;99.90
16283;DHT22;8249;48.708;9.030;2022-11-23T04:28:39;1.80;99.90
16283;DHT22;8249;48.708;9.030;2022-11-23T04:31:06;1.90;99.90
16283;DHT22;8249;48.708;9.030;2022-11-23T04:33:44;2.00;99.90
16283;DHT22;8249;48.708;9.030;2022-11-23T04:36:14;2.00;99.90
16283;DHT22;8249;48.708;9.030;2022-11-23T04:38:41;2.00;99.90
16283;DHT22;8249;48.708;9.030;2022-11-23T04:41:09;2.10;99.90
16283;DHT22;8249;48.708;9.030;2022-11-23T04:43:38;2.10;99.90
16283;DHT22;8249;48.708;9.030;2022-11-23T04:46:05;2.10;99.90
16283;DHT22;8249;48.708;9.030;2022-11-23T04:48:32;2.10;99.90
16283;DHT22;8249;48.708;9.030;2022-11-23T04:50:59;2.10;99.90
16283;DHT22;8249;48.708;9.030;2022-11-23T04:53:34;2.10;99.90
16283;DHT22;8249;48.708;9.030;2022-11-23T04:56:01;2.10;99.90
16283;DHT22;8249;48.708;9.030;2022-11-23T04:58:33;2.00;99.90
16283;DHT22;8249;48.708;9.030;2022-11-23T05:01:01;2.00;99.90
16283;DHT22;8249;48.708;9.030;2022-11-23T05:03:30;2.00;99.90
16283;DHT22;8249;48.708;9.030;2022-11-23T05:06:00;2.00;99.90
16283;DHT22;8249;48.708;9.030;2022-11-23T05:08:37;2.00;99.90
16283;DHT22;8249;48.708;9.030;2022-11-23T05:11:21;2.00;99.90
16283;DHT22;8249;48.708;9.030;2022-11-23T05:13:49;2.10;99.90
16283;DHT22;8249;48.708;9.030;2022-11-23T05:16:16;2.10;99.90
16283;DHT22;8249;48.708;9.030;2022-11-23T05:18:43;2.20;99.90
16283;DHT22;8249;48.708;9.030;2022-11-23T05:21:10;2.20;99.90
16283;DHT22;8249;48.708;9.030;2022-11-23T05:23:39;2.20;99.90
16283;DHT22;8249;48.708;9.030;2022-11-23T05:26:07;2.30;99.90
16283;DHT22;8249;48.708;9.030;2022-11-23T05:28:34;2.30;99.90
16283;DHT22;8249;48.708;9.030;2022-11-23T05:31:03;2.40;99.90
16283;DHT22;8249;48.708;9.030;2022-11-23T05:33:30;2.40;99.90
16283;DHT22;8249;48.708;9.030;2022-11-23T05:35:57;2.40;99.90
16283;DHT22;8249;48.708;9.030;2022-11-23T05:38:34;2.50;99.90
16283;DHT22;8249;48.708;9.030;2022-11-23T05:41:06;2.50;99.90
16283;DHT22;8249;48.708;9.030;2022-11-23T05:43:33;2.50;99.90
16283;DHT22;8249;48.708;9.030;2022-11-23T05:46:01;2.60;99.90
16283;DHT22;8249;48.708;9.030;2022-11-23T05:48:31;2.60;99.90
16283;DHT22;8249;48.708;9.030;2022-11-23T05:50:58;2.60;99.90
16283;DHT22;8249;48.708;9.030;2022-11-23T05:53:33;2.70;99.90
16283;DHT22;8249;48.708;9.030;2022-11-23T05:56:08;2.70;99.90
16283;DHT22;8249;48.708;9.030;2022-11-23T05:58:45;2.70;99.90
16283;DHT22;8249;48.708;9.030;2022-11-23T06:01:12;2.70;99.90
16283;DHT22;8249;48.708;9.030;2022-11-23T06:03:39;2.70;99.90
16283;DHT22;8249;48.708;9.030;2022-11-23T06:06:06;2.70;99.90
16283;DHT22;8249;48.708;9.030;2022-11-23T06:08:38;2.70;99.90
16283;DHT22;8249;48.708;9.030;2022-11-23T06:11:06;2.70;99.90
16283;DHT22;8249;48.708;9.030;2022-11-23T06:13:34;2.80;99.90
16283;DHT22;8249;48.708;9.030;2022-11-23T06:16:01;2.90;99.90
16283;DHT22;8249;48.708;9.030;2022-11-23T06:18:38;3.00;99.90
16283;DHT22;8249;48.708;9.030;2022-11-23T06:21:05;3.00;99.90
16283;DHT22;8249;48.708;9.030;2022-11-23T06:23:32;3.10;99.90
16283;DHT22;8249;48.708;9.030;2022-11-23T06:26:00;3.20;99.90
16283;DHT22;8249;48.708;9.030;2022-11-23T06:28:30;3.30;99.90
16283;DHT22;8249;48.708;9.030;2022-11-23T06:31:03;3.30;99.90
16283;DHT22;8249;48.708;9.030;2022-11-23T06:33:31;3.20;99.90
16283;DHT22;8249;48.708;9.030;2022-11-23T06:36:00;3.20;99.90
16283;DHT22;8249;48.708;9.030;2022-11-23T06:38:36;3.20;99.90
16283;DHT22;8249;48.708;9.030;2022-11-23T06:41:09;3.20;99.90
16283;DHT22;8249;48.708;9.030;2022-11-23T06:43:36;3.20;99.90
16283;DHT22;8249;48.708;9.030;2022-11-23T06:46:05;3.20;99.90
16283;DHT22;8249;48.708;9.030;2022-11-23T06:48:37;3.20;99.90
16283;DHT22;8249;48.708;9.030;2022-11-23T06:51:05;3.20;99.90
16283;DHT22;8249;48.708;9.030;2022-11-23T06:53:34;3.20;99.90
16283;DHT22;8249;48.708;9.030;2022-11-23T06:56:05;3.10;99.90
16283;DHT22;8249;48.708;9.030;2022-11-23T06:58:32;3.00;99.90
16283;DHT22;8249;48.708;9.030;2022-11-23T07:01:05;2.90;99.90
16283;DHT22;8249;48.708;9.030;2022-11-23T07:03:40;2.80;99.90
16283;DHT22;8249;48.708;9.030;2022-11-23T07:06:29;2.80;99.90
16283;DHT22;8249;48.708;9.030;2022-11-23T07:08:59;2.80;99.90
16283;DHT22;8249;48.708;9.030;2022-11-23T07:11:59;2.70;99.90
16283;DHT22;8249;48.708;9.030;2022-11-23T07:14:27;2.70;99.90
16283;DHT22;8249;48.708;9.030;2022-11-23T07:16:56;2.60;99.90
16283;DHT22;8249;48.708;9.030;2022-11-23T07:19:23;2.60;99.90
16283;DHT22;8249;48.708;9.030;2022-11-23T07:21:51;2.50;99.90
16283;DHT22;8249;48.708;9.030;2022-11-23T07:24:18;2.50;99.90
16283;DHT22;8249;48.708;9.030;2022-11-23T07:26:45;2.50;99.90
16283;DHT22;8249;48.708;9.030;2022-11-23T07:29:13;2.50;99.90
16283;DHT22;8249;48.708;9.030;2022-11-23T07:31:40;2.50;99.90
16283;DHT22;8249;48.708;9.030;2022-11-23T07:34:08;2.50;99.90
16283;DHT22;8249;48.708;9.030;2022-11-23T07:36:36;2.60;99.90
16283;DHT22;8249;48.708;9.030;2022-11-23T07:39:03;2.60;99.90
16283;DHT22;8249;48.708;9.030;2022-11-23T07:41:30;2.70;99.90
16283;DHT22;8249;48.708;9.030;2022-11-23T07:44:06;2.80;99.90
16283;DHT22;8249;48.708;9.030;2022-11-23T07:46:33;2.90;99.90
16283;DHT22;8249;48.708;9.030;2022-11-23T07:49:00;3.00;99.90
16283;DHT22;8249;48.708;9.030;2022-11-23T07:51:29;3.10;99.90
16283;DHT22;8249;48.708;9.030;2022-11-23T07:53:56;3.30;99.90
16283;DHT22;8249;48.708;9.030;2022-11-23T07:56:23;3.40;99.90
16283;DHT22;8249;48.708;9.030;2022-11-23T07:58:50;3.60;99.90
16283;DHT22;8249;48.708;9.030;2022-11-23T08:01:18;3.80;99.90
16283;DHT22;8249;48.708;9.030;2022-11-23T08:03:46;4.00;99.90
16283;DHT22;8249;48.708;9.030;2022-11-23T08:06:14;4.20;99.90
16283;DHT22;8249;48.708;9.030;2022-11-23T08:08:43;4.60;99.90
16283;DHT22;8249;48.708;9.030;2022-11-23T08:11:10;5.20;99.90
16283;DHT22;8249;48.708;9.030;2022-11-23T08:13:39;6.00;99.90
16283;DHT22;8249;48.708;9.030;2022-11-23T08:16:06;6.70;99.90
16283;DHT22;8249;48.708;9.030;2022-11-23T08:18:34;7.40;99.90
16283;DHT22;8249;48.708;9.030;2022-11-23T08:21:01;8.00;99.90
16283;DHT22;8249;48.708;9.030;2022-11-23T08:23:28;8.50;99.90
16283;DHT22;8249;48.708;9.030;2022-11-23T08:25:56;9.00;99.90
16283;DHT22;8249;48.708;9.030;2022-11-23T08:28:23;9.30;99.90
16283;DHT22;8249;48.708;9.030;2022-11-23T08:30:50;9.90;99.90
16283;DHT22;8249;48.708;9.030;2022-11-23T08:33:17;10.50;99.90
16283;DHT22;8249;48.708;9.030;2022-11-23T08:35:44;10.70;99.90
16283;DHT22;8249;48.708;9.030;2022-11-23T08:38:11;11.10;99.90
16283;DHT22;8249;48.708;9.030;2022-11-23T08:40:38;11.50;99.90
16283;DHT22;8249;48.708;9.030;2022-11-23T08:43:07;12.10;99.90
16283;DHT22;8249;48.708;9.030;2022-11-23T08:45:34;12.10;99.90
16283;DHT22;8249;48.708;9.030;2022-11-23T08:48:02;12.00;99.90
16283;DHT22;8249;48.708;9.030;2022-11-23T08:50:29;12.50;99.90
16283;DHT22;8249;48.708;9.030;2022-11-23T08:52:57;12.40;99.90
16283;DHT22;8249;48.708;9.030;2022-11-23T08:55:24;12.40;99.90
16283;DHT22;8249;48.708;9.030;2022-11-23T08:57:54;12.90;99.90
16283;DHT22;8249;48.708;9.030;2022-11-23T09:00:23;12.80;99.90
16283;DHT22;8249;48.708;9.030;2022-11-23T09:02:50;13.20;99.90
16283;DHT22;8249;48.708;9.030;2022-11-23T09:05:17;13.40;99.90
16283;DHT22;8249;48.708;9.030;2022-11-23T09:07:44;13.10;99.90
16283;DHT22;8249;48.708;9.030;2022-11-23T09:10:11;13.00;99.90
16283;DHT22;8249;48.708;9.030;2022-11-23T09:12:38;12.90;99.90
16283;DHT22;8249;48.708;9.030;2022-11-23T09:15:05;13.10;99.90
16283;DHT22;8249;48.708;9.030;2022-11-23T09:17:34;13.10;99.90
16283;DHT22;8249;48.708;9.030;2022-11-23T09:20:01;13.60;99.90
16283;DHT22;8249;48.708;9.030;2022-11-23T09:22:28;13.70;99.90
16283;DHT22;8249;48.708;9.030;2022-11-23T09:24:55;13.40;99.90
16283;DHT22;8249;48.708;9.030;2022-11-23T09:27:22;13.30;99.90
16283;DHT22;8249;48.708;9.030;2022-11-23T09:29:49;13.60;99.90
16283;DHT22;8249;48.708;9.030;2022-11-23T09:32:16;13.70;99.90
16283;DHT22;8249;48.708;9.030;2022-11-23T09:34:44;13.90;99.90
16283;DHT22;8249;48.708;9.030;2022-11-23T09:37:11;13.90;99.90
16283;DHT22;8249;48.708;9.030;2022-11-23T09:39:38;13.70;99.90
16283;DHT22;8249;48.708;9.030;2022-11-23T09:42:15;14.10;99.90
16283;DHT22;8249;48.708;9.030;2022-11-23T09:44:56;14.60;99.90
16283;DHT22;8249;48.708;9.030;2022-11-23T09:47:37;14.70;99.90
16283;DHT22;8249;48.708;9.030;2022-11-23T09:50:14;15.00;99.90
16283;DHT22;8249;48.708;9.030;2022-11-23T09:52:45;14.90;99.90
16283;DHT22;8249;48.708;9.030;2022-11-23T09:55:16;14.70;99.90
16283;DHT22;8249;48.708;9.030;2022-11-23T09:57:45;14.70;99.90
16283;DHT22;8249;48.708;9.030;2022-11-23T10:00:18;13.80;99.90
16283;DHT22;8249;48.708;9.030;2022-11-23T10:02:46;13.60;99.90
16283;DHT22;8249;48.708;9.030;2022-11-23T10:05:17;13.60;99.90
16283;DHT22;8249;48.708;9.030;2022-11-23T10:07:59;13.60;99.90
16283;DHT22;8249;48.708;9.030;2022-11-23T10:10:37;13.90;99.90
16283;DHT22;8249;48.708;9.030;2022-11-23T10:16:13;14.40;99.90
16283;DHT22;8249;48.708;9.030;2022-11-23T10:18:48;14.10;99.90
16283;DHT22;8249;48.708;9.030;2022-11-23T10:21:25;14.10;99.90
16283;DHT22;8249;48.708;9.030;2022-11-23T10:23:55;14.20;99.90
16283;DHT22;8249;48.708;9.030;2022-11-23T10:26:28;14.30;99.90
16283;DHT22;8249;48.708;9.030;2022-11-23T10:29:08;14.60;99.90
16283;DHT22;8249;48.708;9.030;2022-11-23T10:31:36;14.60;99.90
16283;DHT22;8249;48.708;9.030;2022-11-23T10:34:07;15.00;99.90
16283;DHT22;8249;48.708;9.030;2022-11-23T10:36:38;14.90;99.90
16283;DHT22;8249;48.708;9.030;2022-11-23T10:39:15;15.20;99.90
16283;DHT22;8249;48.708;9.030;2022-11-23T10:41:43;15.50;99.90
16283;DHT22;8249;48.708;9.030;2022-11-23T10:44:20;15.80;99.90
16283;DHT22;8249;48.708;9.030;2022-11-23T10:46:48;15.90;99.90
16283;DHT22;8249;48.708;9.030;2022-11-23T10:49:17;15.20;99.90
16283;DHT22;8249;48.708;9.030;2022-11-23T10:51:52;15.50;99.80
16283;DHT22;8249;48.708;9.030;2022-11-23T10:54:22;16.00;98.90
16283;DHT22;8249;48.708;9.030;2022-11-23T10:56:51;15.70;99.10
16283;DHT22;8249;48.708;9.030;2022-11-23T10:59:30;15.60;99.10
16283;DHT22;8249;48.708;9.030;2022-11-23T11:01:59;15.60;99.30
16283;DHT22;8249;48.708;9.030;2022-11-23T11:04:27;15.30;99.90
16283;DHT22;8249;48.708;9.030;2022-11-23T11:09:51;15.50;99.70
16283;DHT22;8249;48.708;9.030;2022-11-23T11:12:19;16.00;98.60
16283;DHT22;8249;48.708;9.030;2022-11-23T11:14:59;15.80;98.50
16283;DHT22;8249;48.708;9.030;2022-11-23T11:17:30;16.00;98.10
16283;DHT22;8249;48.708;9.030;2022-11-23T11:19:57;16.10;97.80
16283;DHT22;8249;48.708;9.030;2022-11-23T11:22:28;16.30;98.10
16283;DHT22;8249;48.708;9.030;2022-11-23T11:25:00;16.70;97.50
16283;DHT22;8249;48.708;9.030;2022-11-23T11:27:28;17.00;97.80
16283;DHT22;8249;48.708;9.030;2022-11-23T11:30:01;17.40;96.40
16283;DHT22;8249;48.708;9.030;2022-11-23T11:32:33;17.30;96.20
16283;DHT22;8249;48.708;9.030;2022-11-23T11:35:09;17.90;95.10
16283;DHT22;8249;48.708;9.030;2022-11-23T11:37:39;17.60;93.90
16283;DHT22;8249;48.708;9.030;2022-11-23T11:40:18;17.10;94.80
16283;DHT22;8249;48.708;9.030;2022-11-23T11:42:49;17.40;95.10
16283;DHT22;8249;48.708;9.030;2022-11-23T11:45:23;17.40;94.50
16283;DHT22;8249;48.708;9.030;2022-11-23T11:47:56;17.40;94.30
16283;DHT22;8249;48.708;9.030;2022-11-23T11:50:27;16.90;94.90
16283;DHT22;8249;48.708;9.030;2022-11-23T11:52:59;17.00;94.90
16283;DHT22;8249;48.708;9.030;2022-11-23T11:55:39;17.50;94.50
16283;DHT22;8249;48.708;9.030;2022-11-23T11:58:09;17.50;94.10
16283;DHT22;8249;48.708;9.030;2022-11-23T12:00:37;17.70;93.30
16283;DHT22;8249;48.708;9.030;2022-11-23T12:03:13;17.30;93.20
16283;DHT22;8249;48.708;9.030;2022-11-23T12:05:45;16.70;93.70
16283;DHT22;8249;48.708;9.030;2022-11-23T12:08:16;17.30;93.60
16283;DHT22;8249;48.708;9.030;2022-11-23T12:10:49;16.90;93.30
16283;DHT22;8249;48.708;9.030;2022-11-23T12:13:19;16.70;93.90
16283;DHT22;8249;48.708;9.030;2022-11-23T12:15:52;16.60;93.80
16283;DHT22;8249;48.708;9.030;2022-11-23T12:18:45;16.80;93.70
16283;DHT22;8249;48.708;9.030;2022-11-23T12:21:29;16.90;93.50
16283;DHT22;8249;48.708;9.030;2022-11-23T12:24:03;17.00;93.30
16283;DHT22;8249;48.708;9.030;2022-11-23T12:26:43;17.10;93.50
16283;DHT22;8249;48.708;9.030;2022-11-23T12:29:32;17.60;93.40
16283;DHT22;8249;48.708;9.030;2022-11-23T12:32:13;18.40;92.10
16283;DHT22;8249;48.708;9.030;2022-11-23T12:35:00;18.20;92.00
16283;DHT22;8249;48.708;9.030;2022-11-23T12:37:38;17.70;92.40
16283;DHT22;8249;48.708;9.030;2022-11-23T12:40:15;17.20;92.90
16283;DHT22;8249;48.708;9.030;2022-11-23T12:42:48;17.10;92.60
16283;DHT22;8249;48.708;9.030;2022-11-23T12:48:46;16.60;93.60
16283;DHT22;8249;48.708;9.030;2022-11-23T12:51:21;16.90;93.20
16283;DHT22;8249;48.708;9.030;2022-11-23T12:54:00;16.50;93.40
16283;DHT22;8249;48.708;9.030;2022-11-23T12:56:47;16.90;93.50
16283;DHT22;8249;48.708;9.030;2022-11-23T12:59:19;16.70;93.20
16283;DHT22;8249;48.708;9.030;2022-11-23T13:01:51;16.50;93.80
16283;DHT22;8249;48.708;9.030;2022-11-23T13:04:51;16.50;93.60
16283;DHT22;8249;48.708;9.030;2022-11-23T13:07:37;16.30;93.90
16283;DHT22;8249;48.708;9.030;2022-11-23T13:10:17;16.90;93.20
16283;DHT22;8249;48.708;9.030;2022-11-23T13:12:57;17.60;92.70
16283;DHT22;8249;48.708;9.030;2022-11-23T13:15:41;17.60;92.60
16283;DHT22;8249;48.708;9.030;2022-11-23T13:18:21;17.50;92.50
16283;DHT22;8249;48.708;9.030;2022-11-23T13:21:07;18.10;92.30
16283;DHT22;8249;48.708;9.030;2022-11-23T13:23:38;17.60;92.20
16283;DHT22;8249;48.708;9.030;2022-11-23T13:26:13;17.30;92.40
16283;DHT22;8249;48.708;9.030;2022-11-23T13:28:42;17.50;92.70
16283;DHT22;8249;48.708;9.030;2022-11-23T13:31:22;17.20;92.90
16283;DHT22;8249;48.708;9.030;2022-11-23T13:33:51;16.80;93.00
16283;DHT22;8249;48.708;9.030;2022-11-23T13:36:39;17.10;93.00
16283;DHT22;8249;48.708;9.030;2022-11-23T13:42:23;18.00;92.40
16283;DHT22;8249;48.708;9.030;2022-11-23T13:45:13;18.50;91.80
16283;DHT22;8249;48.708;9.030;2022-11-23T13:50:58;19.20;90.50
16283;DHT22;8249;48.708;9.030;2022-11-23T13:53:28;18.50;90.80
16283;DHT22;8249;48.708;9.030;2022-11-23T13:55:57;18.30;91.20
16283;DHT22;8249;48.708;9.030;2022-11-23T13:58:38;18.30;91.20
16283;DHT22;8249;48.708;9.030;2022-11-23T14:01:06;17.90;91.30
16283;DHT22;8249;48.708;9.030;2022-11-23T14:03:54;17.90;91.50
16283;DHT22;8249;48.708;9.030;2022-11-23T14:06:33;17.90;91.40
16283;DHT22;8249;48.708;9.030;2022-11-23T14:09:05;18.20;91.20
16283;DHT22;8249;48.708;9.030;2022-11-23T14:11:51;18.00;91.20
16283;DHT22;8249;48.708;9.030;2022-11-23T14:14:23;17.70;91.50
16283;DHT22;8249;48.708;9.030;2022-11-23T14:17:06;17.70;91.50
16283;DHT22;8249;48.708;9.030;2022-11-23T14:19:49;18.00;91.60
16283;DHT22;8249;48.708;9.030;2022-11-23T14:22:32;17.70;91.40
16283;DHT22;8249;48.708;9.030;2022-11-23T14:25:21;16.90;92.20
16283;DHT22;8249;48.708;9.030;2022-11-23T14:27:59;16.40;92.70
16283;DHT22;8249;48.708;9.030;2022-11-23T14:30:40;16.60;92.80
16283;DHT22;8249;48.708;9.030;2022-11-23T14:33:26;16.70;93.30
16283;DHT22;8249;48.708;9.030;2022-11-23T14:36:11;16.90;92.90
16283;DHT22;8249;48.708;9.030;2022-11-23T14:41:36;16.90;93.00
16283;DHT22;8249;48.708;9.030;2022-11-23T14:44:11;17.30;92.70
16283;DHT22;8249;48.708;9.030;2022-11-23T14:46:58;17.20;92.30
16283;DHT22;8249;48.708;9.030;2022-11-23T14:49:25;16.50;92.90
16283;DHT22;8249;48.708;9.030;2022-11-23T14:51:53;15.30;93.60
16283;DHT22;8249;48.708;9.030;2022-11-23T14:54:21;13.90;94.80
16283;DHT22;8249;48.708;9.030;2022-11-23T14:56:49;12.80;96.20
16283;DHT22;8249;48.708;9.030;2022-11-23T14:59:20;12.00;97.50
16283;DHT22;8249;48.708;9.030;2022-11-23T15:01:51;11.30;98.50
16283;DHT22;8249;48.708;9.030;2022-11-23T15:04:23;10.80;99.60
16283;DHT22;8249;48.708;9.030;2022-11-23T15:06:55;10.30;99.90
16283;DHT22;8249;48.708;9.030;2022-11-23T15:09:37;10.00;99.90
16283;DHT22;8249;48.708;9.030;2022-11-23T15:12:17;9.70;99.90
16283;DHT22;8249;48.708;9.030;2022-11-23T15:14:46;9.50;99.90
16283;DHT22;8249;48.708;9.030;2022-11-23T15:17:14;9.30;99.90
16283;DHT22;8249;48.708;9.030;2022-11-23T15:19:41;9.20;99.90
16283;DHT22;8249;48.708;9.030;2022-11-23T15:22:16;9.00;99.90
16283;DHT22;8249;48.708;9.030;2022-11-23T15:24:44;8.90;99.90
16283;DHT22;8249;48.708;9.030;2022-11-23T15:27:14;8.80;99.90
16283;DHT22;8249;48.708;9.030;2022-11-23T15:29:51;8.80;99.90
16283;DHT22;8249;48.708;9.030;2022-11-23T15:32:21;8.70;99.90
16283;DHT22;8249;48.708;9.030;2022-11-23T15:34:49;8.70;99.90
16283;DHT22;8249;48.708;9.030;2022-11-23T15:37:19;8.60;99.90
16283;DHT22;8249;48.708;9.030;2022-11-23T15:39:47;8.60;99.90
16283;DHT22;8249;48.708;9.030;2022-11-23T15:42:17;8.50;99.90
16283;DHT22;8249;48.708;9.030;2022-11-23T15:44:45;8.50;99.90
16283;DHT22;8249;48.708;9.030;2022-11-23T15:47:15;8.40;99.90
16283;DHT22;8249;48.708;9.030;2022-11-23T15:49:43;8.50;99.90
16283;DHT22;8249;48.708;9.030;2022-11-23T15:52:13;8.60;99.90
16283;DHT22;8249;48.708;9.030;2022-11-23T15:54:43;8.60;99.90
16283;DHT22;8249;48.708;9.030;2022-11-23T15:57:15;8.70;99.90
16283;DHT22;8249;48.708;9.030;2022-11-23T15:59:46;8.70;99.90
16283;DHT22;8249;48.708;9.030;2022-11-23T16:02:16;8.70;99.90
16283;DHT22;8249;48.708;9.030;2022-11-23T16:04:44;8.60;99.90
16283;DHT22;8249;48.708;9.030;2022-11-23T16:07:15;8.50;99.90
16283;DHT22;8249;48.708;9.030;2022-11-23T16:09:47;8.50;99.90
16283;DHT22;8249;48.708;9.030;2022-11-23T16:12:23;8.40;99.90
16283;DHT22;8249;48.708;9.030;2022-11-23T16:14:52;8.40;99.90
16283;DHT22;8249;48.708;9.030;2022-11-23T16:17:20;8.40;99.90
16283;DHT22;8249;48.708;9.030;2022-11-23T16:19:50;8.40;99.90
16283;DHT22;8249;48.708;9.030;2022-11-23T16:22:29;8.40;99.90
16283;DHT22;8249;48.708;9.030;2022-11-23T16:25:03;8.40;99.90
16283;DHT22;8249;48.708;9.030;2022-11-23T16:27:32;8.40;99.90
16283;DHT22;8249;48.708;9.030;2022-11-23T16:30:00;8.40;99.90
16283;DHT22;8249;48.708;9.030;2022-11-23T16:32:30;8.40;99.90
16283;DHT22;8249;48.708;9.030;2022-11-23T16:35:08;8.40;99.90
16283;DHT22;8249;48.708;9.030;2022-11-23T16:37:40;8.40;99.90
16283;DHT22;8249;48.708;9.030;2022-11-23T16:40:09;8.40;99.90